createdAt,value
2022-09-16T00:04:14.886Z,11.12
2022-09-16T00:09:17.692Z,11.21
2022-09-16T00:14:20.472Z,11.15
2022-09-16T00:19:24.702Z,11.15
2022-09-16T00:24:28.320Z,11.05
2022-09-16T00:29:31.256Z,11.05
2022-09-16T00:34:35.439Z,11.09
2022-09-16T00:39:38.561Z,11.31
2022-09-16T00:44:57.569Z,11.29
2022-09-16T00:50:08.121Z,11.40
2022-09-16T00:55:15.377Z,11.35
2022-09-16T01:00:18.276Z,11.19
2022-09-16T01:05:25.855Z,11.24
2022-09-16T01:10:28.624Z,11.19
2022-09-16T01:15:42.220Z,11.28
2022-09-16T01:21:03.287Z,11.24
2022-09-16T01:26:21.853Z,11.22
2022-09-16T01:31:35.703Z,11.27
2022-09-16T01:36:46.458Z,10.96
2022-09-16T01:42:02.392Z,11.06
2022-09-16T01:47:13.590Z,11.16
2022-09-16T01:52:24.743Z,11.19
2022-09-16T01:57:35.805Z,11.22
2022-09-16T02:02:45.536Z,11.11
2022-09-16T02:07:53.404Z,11.08
2022-09-16T02:13:01.179Z,11.05
2022-09-16T02:18:10.436Z,11.05
2022-09-16T02:23:16.808Z,11.06
2022-09-16T02:28:27.420Z,10.96
2022-09-16T02:33:35.336Z,10.99
2022-09-16T02:38:42.648Z,10.95
2022-09-16T02:43:46.526Z,10.95
2022-09-16T02:48:58.566Z,11.18
2022-09-16T02:54:10.373Z,10.95
2022-09-16T02:59:13.986Z,11.06
2022-09-16T03:04:21.345Z,10.95
2022-09-16T03:09:25.001Z,10.90
2022-09-16T03:14:53.061Z,10.97
2022-09-16T03:20:05.861Z,10.79
2022-09-16T03:25:15.190Z,10.53
2022-09-16T03:30:18.204Z,10.60
2022-09-16T03:35:28.415Z,10.71
2022-09-16T03:40:34.241Z,10.63
2022-09-16T03:45:37.193Z,10.59
2022-09-16T03:50:41.512Z,10.73
2022-09-16T03:55:44.274Z,10.92
2022-09-16T04:00:52.133Z,11.03
2022-09-16T04:05:57.319Z,10.96
2022-09-16T04:11:02.110Z,11.01
2022-09-16T04:16:05.534Z,11.04
2022-09-16T04:21:10.886Z,10.86
2022-09-16T04:26:13.829Z,10.92
2022-09-16T04:31:17.116Z,10.76
2022-09-16T04:36:22.169Z,10.66
2022-09-16T04:41:27.493Z,10.64
2022-09-16T04:46:32.460Z,10.40
2022-09-16T04:51:36.654Z,10.34
2022-09-16T04:56:39.888Z,10.47
2022-09-16T05:01:43.843Z,10.45
2022-09-16T05:06:48.126Z,10.63
2022-09-16T05:11:50.886Z,10.52
2022-09-16T05:16:53.786Z,10.64
2022-09-16T05:22:00.679Z,10.76
2022-09-16T05:27:03.777Z,10.71
2022-09-16T05:32:06.638Z,10.61
2022-09-16T05:37:10.790Z,10.85
2022-09-16T05:42:13.577Z,10.97
2022-09-16T05:47:16.311Z,11.00
2022-09-16T05:52:20.426Z,10.94
2022-09-16T05:57:23.856Z,11.00
2022-09-16T06:02:26.908Z,11.31
2022-09-16T06:07:31.044Z,11.48
2022-09-16T06:12:33.761Z,11.62
2022-09-16T06:17:36.494Z,11.80
2022-09-16T06:22:40.646Z,12.15
2022-09-16T06:27:43.382Z,12.61
2022-09-16T06:32:46.199Z,13.66
2022-09-16T06:37:50.375Z,14.98
2022-09-16T06:42:57.187Z,16.13
2022-09-16T06:48:03.272Z,17.34
2022-09-16T06:53:07.545Z,17.53
2022-09-16T06:58:10.343Z,17.51
2022-09-16T07:03:13.027Z,18.95
2022-09-16T07:08:17.195Z,21.57
2022-09-16T07:13:20.158Z,22.59
2022-09-16T07:18:22.970Z,20.80
2022-09-16T07:23:27.076Z,20.99
2022-09-16T07:28:29.917Z,21.45
2022-09-16T07:33:37.088Z,20.10
2022-09-16T07:38:41.396Z,20.52
2022-09-16T07:43:45.029Z,18.43
2022-09-16T07:48:49.768Z,17.61
2022-09-16T07:53:58.507Z,15.68
2022-09-16T07:59:02.711Z,15.32
2022-09-16T08:04:05.808Z,15.66
2022-09-16T08:09:27.298Z,15.72
2022-09-16T08:14:33.161Z,15.05
2022-09-16T08:19:35.991Z,14.51
2022-09-16T08:24:40.082Z,14.51
2022-09-16T08:29:42.863Z,14.36
2022-09-16T08:34:45.694Z,15.03
2022-09-16T08:39:51.825Z,15.27
2022-09-16T08:45:03.794Z,15.44
2022-09-16T08:50:14.493Z,15.49
2022-09-16T08:55:25.167Z,15.95
2022-09-16T09:00:28.052Z,15.83
2022-09-16T09:05:42.813Z,15.96
2022-09-16T09:10:50.917Z,15.94
2022-09-16T09:16:00.315Z,15.62
2022-09-16T09:21:16.100Z,15.19
2022-09-16T09:26:23.146Z,15.06
2022-09-16T09:31:39.334Z,14.52
2022-09-16T09:36:52.572Z,14.01
2022-09-16T09:42:03.742Z,13.84
2022-09-16T09:47:13.136Z,13.93
2022-09-16T09:52:22.185Z,14.42
2022-09-16T09:57:34.676Z,14.67
2022-09-16T10:02:44.968Z,15.02
2022-09-16T10:07:52.190Z,15.32
2022-09-16T10:12:56.348Z,15.73
2022-09-16T10:18:02.983Z,15.55
2022-09-16T10:23:10.919Z,15.50
2022-09-16T10:28:23.680Z,15.65
2022-09-16T10:33:30.672Z,15.66
2022-09-16T10:38:38.455Z,16.21
2022-09-16T10:43:50.384Z,16.25
2022-09-16T10:48:58.068Z,16.12
2022-09-16T10:54:02.777Z,16.54
2022-09-16T10:59:11.396Z,16.48
2022-09-16T11:05:02.716Z,16.78
2022-09-16T11:10:13.966Z,17.43
2022-09-16T11:15:30.185Z,15.59
2022-09-16T11:21:04.688Z,14.77
2022-09-16T11:26:15.060Z,14.94
2022-09-16T11:31:31.904Z,14.87
2022-09-16T11:36:46.193Z,15.21
2022-09-16T11:41:58.436Z,15.78
2022-09-16T11:47:17.101Z,15.95
2022-09-16T11:52:35.122Z,15.97
2022-09-16T11:57:43.135Z,16.04
2022-09-16T12:02:54.439Z,16.55
2022-09-16T12:08:04.384Z,16.49
2022-09-16T12:13:10.939Z,16.38
2022-09-16T12:18:20.234Z,16.73
2022-09-16T12:23:27.732Z,16.03
2022-09-16T12:28:37.401Z,15.58
2022-09-16T12:33:46.167Z,15.53
2022-09-16T12:38:49.058Z,15.63
2022-09-16T12:44:33.642Z,15.51
2022-09-16T12:50:02.369Z,15.39
2022-09-16T12:55:34.287Z,14.84
2022-09-16T13:00:44.506Z,14.42
2022-09-16T13:05:51.926Z,14.69
2022-09-16T13:16:32.811Z,14.91
2022-09-16T13:21:42.076Z,14.65
2022-09-16T13:26:46.893Z,14.34
2022-09-16T13:31:50.264Z,13.99
2022-09-16T13:36:54.789Z,14.01
2022-09-16T13:41:57.660Z,13.87
2022-09-16T13:47:34.242Z,13.57
2022-09-16T13:52:38.527Z,13.14
2022-09-16T13:57:58.421Z,13.04
2022-09-16T14:03:28.028Z,13.10
2022-09-16T14:08:40.508Z,12.61
2022-09-16T14:13:49.273Z,12.57
2022-09-16T14:18:57.360Z,12.55
2022-09-16T14:24:17.078Z,12.11
2022-09-16T14:29:20.388Z,11.99
2022-09-16T14:34:28.446Z,12.26
2022-09-16T14:39:34.389Z,12.18
2022-09-16T14:44:40.839Z,11.83
2022-09-16T14:49:46.816Z,12.04
2022-09-16T14:54:51.927Z,11.90
2022-09-16T14:59:57.791Z,11.87
2022-09-16T15:05:11.272Z,12.02
2022-09-16T15:10:25.213Z,11.98
2022-09-16T15:15:30.709Z,12.19
2022-09-16T15:20:37.656Z,11.96
2022-09-16T15:25:41.844Z,11.93
2022-09-16T15:30:48.565Z,12.08
2022-09-16T15:35:52.537Z,11.98
2022-09-16T15:41:04.588Z,12.19
2022-09-16T15:46:16.182Z,12.31
2022-09-16T15:51:29.358Z,12.47
2022-09-16T15:56:42.647Z,12.66
2022-09-16T16:01:53.482Z,12.71
2022-09-16T16:06:58.478Z,12.65
2022-09-16T16:12:05.094Z,12.78
2022-09-16T16:17:14.420Z,12.65
2022-09-16T16:22:17.998Z,12.51
2022-09-16T16:27:22.416Z,12.54
2022-09-16T16:32:25.214Z,12.51
2022-09-16T16:37:46.841Z,12.65
2022-09-16T16:42:51.716Z,12.84
2022-09-16T16:47:54.439Z,12.82
2022-09-16T16:52:57.203Z,12.94
2022-09-16T16:58:01.415Z,13.08
2022-09-16T17:03:04.844Z,13.12
2022-09-16T17:08:08.517Z,13.13
2022-09-16T17:13:12.623Z,13.15
2022-09-16T17:18:15.488Z,13.13
2022-09-16T17:23:18.747Z,13.15
2022-09-16T17:28:23.132Z,12.91
2022-09-16T17:33:26.256Z,12.92
2022-09-16T17:38:29.089Z,12.86
2022-09-16T17:43:33.621Z,12.85
2022-09-16T17:48:37.967Z,12.79
2022-09-16T17:53:41.135Z,12.75
2022-09-16T17:58:50.119Z,12.90
2022-09-16T18:03:56.811Z,12.79
2022-09-16T18:09:01.325Z,12.62
2022-09-16T18:14:07.893Z,12.73
2022-09-16T18:19:10.809Z,12.76
2022-09-16T18:24:14.480Z,12.59
2022-09-16T18:29:18.698Z,12.47
2022-09-16T18:34:21.495Z,12.47
2022-09-16T18:39:24.355Z,12.40
2022-09-16T18:44:28.915Z,12.40
2022-09-16T18:49:31.795Z,12.59
2022-09-16T18:54:34.563Z,12.58
2022-09-16T18:59:38.671Z,12.59
2022-09-16T19:04:43.697Z,12.37
2022-09-16T19:09:48.340Z,12.45
2022-09-16T19:14:55.523Z,12.39
2022-09-16T19:19:58.356Z,12.30
2022-09-16T19:25:01.812Z,12.21
2022-09-16T19:30:06.954Z,12.26
2022-09-16T19:35:10.389Z,12.12
2022-09-16T19:40:14.101Z,12.01
2022-09-16T19:45:18.698Z,12.05
2022-09-16T19:50:21.706Z,11.99
2022-09-16T19:55:24.585Z,12.06
2022-09-16T20:00:46.594Z,11.92
2022-09-16T20:06:01.449Z,11.90
2022-09-16T20:11:06.277Z,11.92
2022-09-16T20:16:11.127Z,11.86
2022-09-16T20:21:24.572Z,11.89
2022-09-16T20:26:28.115Z,11.97
2022-09-16T20:31:34.168Z,12.04
2022-09-16T20:36:38.971Z,12.05
2022-09-16T20:41:42.958Z,12.02
2022-09-16T20:46:48.867Z,11.90
2022-09-16T20:51:52.358Z,11.73
2022-09-16T20:56:55.111Z,11.69
2022-09-16T21:02:03.961Z,11.55
2022-09-16T21:07:06.708Z,11.63
2022-09-16T21:12:09.477Z,11.55
2022-09-16T21:17:13.557Z,11.54
2022-09-16T21:22:16.320Z,11.59
2022-09-16T21:27:19.039Z,11.59
2022-09-16T21:32:23.565Z,11.65
2022-09-16T21:37:26.747Z,11.85
2022-09-16T21:42:29.519Z,11.72
2022-09-16T21:47:33.682Z,11.67
2022-09-16T21:52:36.408Z,11.62
2022-09-16T21:57:39.212Z,11.65
2022-09-16T22:02:43.361Z,11.68
2022-09-16T22:07:46.332Z,11.80
2022-09-16T22:12:49.077Z,11.86
2022-09-16T22:17:54.101Z,11.99
2022-09-16T22:22:57.304Z,12.21
2022-09-16T22:28:00.272Z,12.19
2022-09-16T22:33:04.561Z,12.19
2022-09-16T22:38:07.364Z,12.24
2022-09-16T22:43:10.092Z,12.29
2022-09-16T22:48:14.193Z,12.27
2022-09-16T22:53:16.921Z,12.38
2022-09-16T22:58:19.695Z,12.36
2022-09-16T23:03:23.861Z,12.47
2022-09-16T23:08:27.213Z,12.52
2022-09-16T23:13:31.121Z,12.60
2022-09-16T23:18:36.473Z,12.59
2022-09-16T23:23:41.066Z,12.64
2022-09-16T23:28:43.841Z,12.58
2022-09-16T23:33:48.118Z,12.55
2022-09-16T23:38:51.120Z,12.57
2022-09-16T23:43:54.736Z,12.51
2022-09-16T23:48:59.586Z,12.48
2022-09-16T23:54:02.454Z,12.60
2022-09-16T23:59:05.221Z,12.62
